createdAt,value
2018-01-07T00:04:04.038Z,8.87
2018-01-07T00:06:30.470Z,6.50
2018-01-07T00:08:57.440Z,5.90
2018-01-07T00:11:24.464Z,7.07
2018-01-07T00:13:50.798Z,8.47
2018-01-07T00:16:17.081Z,3.17
2018-01-07T00:18:44.096Z,4.70
2018-01-07T00:21:10.912Z,7.23
2018-01-07T00:23:38.382Z,6.47
2018-01-07T00:26:04.796Z,5.57
2018-01-07T00:28:32.112Z,6.00
2018-01-07T00:30:58.584Z,7.30
2018-01-07T00:33:25.617Z,10.03
2018-01-07T00:35:51.876Z,5.93
2018-01-07T00:38:31.503Z,2.67
2018-01-07T00:40:59.203Z,5.53
2018-01-07T00:43:25.638Z,3.60
2018-01-07T00:45:52.017Z,5.23
2018-01-07T00:48:19.794Z,9.00
2018-01-07T00:50:46.576Z,7.37
2018-01-07T00:53:13.570Z,4.00
2018-01-07T00:55:39.900Z,8.10
2018-01-07T00:58:06.450Z,3.90
2018-01-07T01:00:32.781Z,5.40
2018-01-07T01:03:00.986Z,6.40
2018-01-07T01:05:27.565Z,9.60
2018-01-07T01:07:53.904Z,11.30
2018-01-07T01:10:20.188Z,8.20
2018-01-07T01:12:47.157Z,10.03
2018-01-07T01:15:14.144Z,10.87
2018-01-07T01:17:41.490Z,8.53
2018-01-07T01:20:07.953Z,12.10
2018-01-07T01:22:34.557Z,7.00
2018-01-07T01:25:01.549Z,8.23
2018-01-07T01:27:28.784Z,9.73
2018-01-07T01:29:55.132Z,5.70
2018-01-07T01:32:22.476Z,7.87
2018-01-07T01:34:48.729Z,8.37
2018-01-07T01:37:15.334Z,6.40
2018-01-07T01:39:41.592Z,19.00
2018-01-07T01:42:08.015Z,8.00
2018-01-07T01:44:34.542Z,7.10
2018-01-07T01:47:01.786Z,10.80
2018-01-07T01:49:28.284Z,9.80
2018-01-07T01:51:54.630Z,8.47
2018-01-07T01:54:20.921Z,7.70
2018-01-07T01:56:47.181Z,9.60
2018-01-07T01:59:13.645Z,6.73
2018-01-07T02:01:40.089Z,4.37
2018-01-07T02:04:06.393Z,11.40
2018-01-07T02:06:32.661Z,4.73
2018-01-07T02:08:59.094Z,9.70
2018-01-07T02:11:27.366Z,6.13
2018-01-07T02:13:53.571Z,5.80
2018-01-07T02:16:19.835Z,4.93
2018-01-07T02:18:46.221Z,5.57
2018-01-07T02:21:12.571Z,7.43
2018-01-07T02:23:38.944Z,6.40
2018-01-07T02:26:05.498Z,7.33
2018-01-07T02:28:32.090Z,5.60
2018-01-07T02:30:58.421Z,5.43
2018-01-07T02:33:24.637Z,7.43
2018-01-07T02:35:51.502Z,7.43
2018-01-07T02:38:17.796Z,7.10
2018-01-07T02:40:44.045Z,7.80
2018-01-07T02:43:10.611Z,9.20
2018-01-07T02:45:37.074Z,7.73
2018-01-07T02:48:03.495Z,5.17
2018-01-07T02:50:29.751Z,7.40
2018-01-07T02:52:58.074Z,5.27
2018-01-07T02:55:25.581Z,11.83
2018-01-07T02:57:52.169Z,5.33
2018-01-07T03:00:18.401Z,5.33
2018-01-07T03:02:44.808Z,4.07
2018-01-07T03:05:14.654Z,6.33
2018-01-07T03:07:41.157Z,4.83
2018-01-07T03:10:08.133Z,10.33
2018-01-07T03:12:34.509Z,8.97
2018-01-07T03:15:01.021Z,5.13
2018-01-07T03:17:27.412Z,6.30
2018-01-07T03:19:53.747Z,5.30
2018-01-07T03:22:20.080Z,11.93
2018-01-07T03:24:46.600Z,8.30
2018-01-07T03:27:13.600Z,5.53
2018-01-07T03:29:39.918Z,5.83
2018-01-07T03:32:06.982Z,4.73
2018-01-07T03:34:33.641Z,5.67
2018-01-07T03:36:59.904Z,5.73
2018-01-07T03:39:26.204Z,3.80
2018-01-07T03:41:53.425Z,7.80
2018-01-07T03:44:19.664Z,4.30
2018-01-07T03:46:45.988Z,4.07
2018-01-07T03:49:12.424Z,5.10
2018-01-07T03:51:38.708Z,4.73
2018-01-07T03:54:05.689Z,6.73
2018-01-07T03:56:32.717Z,3.27
2018-01-07T03:58:59.388Z,4.70
2018-01-07T04:01:25.596Z,5.80
2018-01-07T04:03:51.833Z,6.63
2018-01-07T04:06:18.260Z,4.03
2018-01-07T04:08:45.680Z,4.30
2018-01-07T04:11:11.960Z,4.00
2018-01-07T04:13:38.864Z,5.37
2018-01-07T04:16:05.188Z,5.03
2018-01-07T04:18:31.385Z,7.20
2018-01-07T04:20:58.353Z,8.20
2018-01-07T04:23:25.256Z,3.30
2018-01-07T04:25:51.672Z,4.33
2018-01-07T04:28:17.849Z,4.03
2018-01-07T04:30:44.078Z,5.10
2018-01-07T04:33:10.500Z,5.23
2018-01-07T04:35:36.798Z,4.00
2018-01-07T04:38:03.040Z,5.83
2018-01-07T04:40:30.540Z,4.10
2018-01-07T04:42:56.710Z,5.43
2018-01-07T04:45:22.919Z,5.00
2018-01-07T04:47:49.886Z,4.20
2018-01-07T04:50:16.258Z,3.40
2018-01-07T04:52:42.496Z,8.47
2018-01-07T04:55:08.697Z,3.20
2018-01-07T04:57:35.848Z,3.13
2018-01-07T05:00:02.113Z,6.40
2018-01-07T05:02:29.072Z,4.20
2018-01-07T05:04:55.258Z,4.33
2018-01-07T05:07:21.461Z,4.40
2018-01-07T05:09:47.691Z,6.40
2018-01-07T05:12:13.900Z,4.90
2018-01-07T05:14:40.080Z,6.70
2018-01-07T05:17:06.292Z,5.23
2018-01-07T05:19:32.529Z,8.53
2018-01-07T05:21:58.765Z,6.30
2018-01-07T05:24:25.695Z,5.80
2018-01-07T05:26:51.898Z,5.17
2018-01-07T05:29:19.099Z,5.10
2018-01-07T05:31:45.387Z,5.63
2018-01-07T05:34:11.563Z,5.80
2018-01-07T05:36:37.883Z,6.10
2018-01-07T05:39:04.874Z,6.50
2018-01-07T05:41:31.084Z,10.63
2018-01-07T05:43:57.377Z,8.37
2018-01-07T05:46:23.600Z,6.73
2018-01-07T05:48:49.951Z,6.40
2018-01-07T05:51:16.144Z,5.97
2018-01-07T05:53:43.320Z,6.60
2018-01-07T05:56:09.499Z,5.70
2018-01-07T05:58:35.781Z,6.70
2018-01-07T06:01:02.667Z,7.13
2018-01-07T06:03:28.945Z,8.70
2018-01-07T06:05:55.169Z,5.73
2018-01-07T06:08:21.436Z,7.63
2018-01-07T06:10:47.641Z,7.37
2018-01-07T06:13:13.856Z,6.20
2018-01-07T06:15:40.249Z,7.87
2018-01-07T06:18:07.548Z,8.07
2018-01-07T06:20:33.729Z,5.87
2018-01-07T06:23:00.145Z,6.10
2018-01-07T06:25:27.300Z,8.50
2018-01-07T06:27:53.505Z,5.00
2018-01-07T06:30:19.722Z,5.57
2018-01-07T06:32:46.458Z,6.33
2018-01-07T06:35:12.698Z,4.07
2018-01-07T06:37:39.044Z,3.83
2018-01-07T06:40:05.481Z,5.10
2018-01-07T06:42:31.689Z,4.17
2018-01-07T06:44:57.948Z,4.37
2018-01-07T06:47:24.148Z,3.87
2018-01-07T06:49:50.475Z,4.43
2018-01-07T06:52:17.443Z,4.33
2018-01-07T06:54:44.453Z,3.70
2018-01-07T06:57:10.876Z,3.23
2018-01-07T06:59:37.116Z,3.60
2018-01-07T07:02:03.308Z,3.63
2018-01-07T07:04:30.498Z,3.93
2018-01-07T07:06:56.904Z,3.10
2018-01-07T07:09:23.115Z,5.13
2018-01-07T07:11:50.433Z,3.87
2018-01-07T07:14:16.966Z,3.30
2018-01-07T07:16:43.185Z,3.87
2018-01-07T07:19:10.112Z,4.30
2018-01-07T07:21:36.345Z,5.33
2018-01-07T07:24:02.929Z,5.10
2018-01-07T07:26:29.929Z,5.93
2018-01-07T07:28:56.121Z,5.77
2018-01-07T07:31:22.567Z,6.23
2018-01-07T07:33:48.764Z,6.97
2018-01-07T07:36:15.001Z,6.87
2018-01-07T07:38:41.998Z,6.63
2018-01-07T07:41:08.619Z,4.97
2018-01-07T07:43:34.880Z,5.73
2018-01-07T07:46:01.140Z,6.33
2018-01-07T07:48:28.556Z,7.13
2018-01-07T07:50:54.828Z,6.33
2018-01-07T07:53:21.111Z,6.00
2018-01-07T07:55:47.340Z,6.27
2018-01-07T07:58:13.704Z,7.27
2018-01-07T08:00:40.046Z,6.80
2018-01-07T08:03:07.400Z,7.90
2018-01-07T08:05:34.491Z,7.47
2018-01-07T08:08:00.738Z,10.70
2018-01-07T08:10:26.998Z,7.33
2018-01-07T08:12:53.284Z,9.87
2018-01-07T08:15:19.541Z,6.80
2018-01-07T08:17:45.799Z,6.10
2018-01-07T08:20:11.980Z,6.43
2018-01-07T08:22:38.259Z,8.50
2018-01-07T08:25:05.207Z,7.50
2018-01-07T08:27:31.436Z,9.17
2018-01-07T08:29:57.864Z,6.57
2018-01-07T08:32:24.093Z,6.17
2018-01-07T08:34:50.293Z,8.70
2018-01-07T08:37:16.915Z,6.93
2018-01-07T08:39:43.124Z,6.60
2018-01-07T08:42:09.368Z,6.40
2018-01-07T08:44:35.807Z,4.50
2018-01-07T08:47:02.063Z,4.73
2018-01-07T08:49:28.371Z,4.80
2018-01-07T08:51:54.752Z,4.93
2018-01-07T08:54:21.069Z,6.73
2018-01-07T08:56:47.284Z,4.73
2018-01-07T08:59:14.272Z,3.77
2018-01-07T09:01:40.541Z,4.03
2018-01-07T09:04:06.930Z,3.50
2018-01-07T09:06:33.913Z,3.40
2018-01-07T09:09:00.278Z,3.30
2018-01-07T09:11:26.492Z,3.70
2018-01-07T09:13:52.738Z,3.03
2018-01-07T09:16:19.087Z,3.20
2018-01-07T09:18:45.327Z,2.50
2018-01-07T09:21:11.512Z,2.40
2018-01-07T09:23:38.136Z,3.40
2018-01-07T09:26:04.500Z,2.60
2018-01-07T09:28:30.820Z,2.93
2018-01-07T09:30:56.997Z,2.70
2018-01-07T09:33:23.550Z,2.80
2018-01-07T09:35:50.500Z,2.40
2018-01-07T09:38:16.798Z,2.33
2018-01-07T09:40:43.348Z,2.30
2018-01-07T09:43:09.572Z,2.40
2018-01-07T09:45:35.864Z,2.07
2018-01-07T09:48:02.161Z,2.93
2018-01-07T09:50:28.439Z,2.60
2018-01-07T09:52:54.739Z,2.63
2018-01-07T09:55:21.237Z,2.20
2018-01-07T09:57:47.440Z,2.50
2018-01-07T10:00:13.684Z,2.47
2018-01-07T10:02:39.912Z,2.20
2018-01-07T10:05:06.188Z,2.10
2018-01-07T10:07:32.420Z,3.17
2018-01-07T10:09:59.480Z,2.73
2018-01-07T10:12:27.164Z,2.07
2018-01-07T10:14:53.491Z,2.20
2018-01-07T10:17:19.658Z,1.83
2018-01-07T10:19:46.024Z,1.90
2018-01-07T10:22:12.363Z,1.87
2018-01-07T10:24:38.532Z,1.90
2018-01-07T10:27:04.725Z,2.00
2018-01-07T10:29:31.028Z,2.47
2018-01-07T10:31:57.241Z,2.00
2018-01-07T10:34:24.164Z,2.00
2018-01-07T10:36:50.821Z,6.33
2018-01-07T10:39:16.984Z,1.77
2018-01-07T10:41:43.916Z,3.63
2018-01-07T10:44:10.131Z,1.77
2018-01-07T10:46:36.341Z,1.80
2018-01-07T10:49:02.508Z,1.90
2018-01-07T10:54:07.885Z,1.80
2018-01-07T10:56:34.160Z,2.10
2018-01-07T10:59:00.728Z,2.33
2018-01-07T11:01:33.128Z,2.70
2018-01-07T11:04:00.052Z,1.90
2018-01-07T11:06:26.531Z,2.17
2018-01-07T11:08:52.701Z,1.60
2018-01-07T11:11:18.864Z,1.90
2018-01-07T11:13:45.159Z,2.30
2018-01-07T11:16:12.082Z,1.90
2018-01-07T11:18:38.280Z,1.90
2018-01-07T11:21:04.521Z,2.50
2018-01-07T11:23:30.742Z,2.33
2018-01-07T11:25:57.710Z,4.10
2018-01-07T11:28:23.916Z,2.63
2018-01-07T11:30:50.993Z,2.03
2018-01-07T11:33:17.920Z,1.80
2018-01-07T11:35:44.108Z,3.23
2018-01-07T11:38:10.292Z,2.40
2018-01-07T11:40:36.459Z,2.90
2018-01-07T11:43:02.659Z,2.10
2018-01-07T11:45:29.587Z,2.10
2018-01-07T11:47:55.931Z,2.13
2018-01-07T11:50:22.118Z,2.23
2018-01-07T11:52:48.282Z,4.30
2018-01-07T11:55:15.416Z,2.17
2018-01-07T11:57:41.592Z,2.03
2018-01-07T12:00:08.537Z,2.20
2018-01-07T12:02:34.829Z,2.37
2018-01-07T12:05:01.016Z,1.93
2018-01-07T12:07:27.255Z,2.10
2018-01-07T12:09:53.441Z,2.50
2018-01-07T12:12:19.816Z,2.00
2018-01-07T12:14:46.795Z,2.30
2018-01-07T12:17:13.016Z,2.53
2018-01-07T12:19:39.950Z,2.67
2018-01-07T12:22:06.132Z,1.70
2018-01-07T12:24:32.319Z,1.50
2018-01-07T12:26:59.260Z,1.90
2018-01-07T12:29:26.331Z,2.07
2018-01-07T12:31:52.575Z,2.30
2018-01-07T12:34:18.849Z,2.27
2018-01-07T12:36:45.279Z,2.00
2018-01-07T12:39:11.445Z,2.30
2018-01-07T12:41:37.641Z,2.10
2018-01-07T12:44:04.463Z,2.43
2018-01-07T12:46:30.680Z,2.20
2018-01-07T12:48:56.848Z,2.00
2018-01-07T12:51:23.070Z,2.07
2018-01-07T12:53:49.405Z,1.97
2018-01-07T12:56:15.613Z,1.80
2018-01-07T12:58:42.057Z,3.17
2018-01-07T13:01:08.240Z,2.73
2018-01-07T13:03:34.440Z,2.13
2018-01-07T13:06:00.984Z,2.30
2018-01-07T13:08:27.206Z,2.17
2018-01-07T13:10:54.150Z,2.50
2018-01-07T13:13:21.077Z,2.40
2018-01-07T13:15:47.336Z,3.50
2018-01-07T13:18:13.828Z,2.77
2018-01-07T13:20:40.409Z,2.33
2018-01-07T13:23:06.812Z,3.00
2018-01-07T13:25:34.581Z,2.97
2018-01-07T13:28:01.016Z,3.30
2018-01-07T13:30:28.861Z,4.47
2018-01-07T13:32:55.265Z,3.13
2018-01-07T13:35:22.759Z,3.80
2018-01-07T13:37:48.923Z,3.50
2018-01-07T13:40:15.144Z,7.73
2018-01-07T13:42:41.632Z,3.40
2018-01-07T13:45:07.832Z,5.47
2018-01-07T13:47:35.077Z,4.60
2018-01-07T13:50:01.365Z,4.70
2018-01-07T13:52:27.719Z,4.83
2018-01-07T13:54:54.764Z,10.00
2018-01-07T13:57:21.010Z,5.50
2018-01-07T13:59:48.105Z,5.23
2018-01-07T14:02:14.535Z,4.00
2018-01-07T14:04:41.627Z,4.43
2018-01-07T14:07:07.811Z,5.33
2018-01-07T14:09:34.100Z,5.20
2018-01-07T14:12:00.324Z,5.93
2018-01-07T14:14:27.310Z,4.90
2018-01-07T14:16:53.496Z,4.57
2018-01-07T14:19:19.729Z,3.27
2018-01-07T14:21:45.975Z,3.67
2018-01-07T14:24:12.205Z,3.33
2018-01-07T14:26:38.469Z,4.50
2018-01-07T14:29:04.768Z,3.17
2018-01-07T14:31:30.969Z,6.03
2018-01-07T14:33:57.298Z,2.97
2018-01-07T14:36:23.500Z,3.80
2018-01-07T14:38:49.695Z,3.07
2018-01-07T14:41:16.952Z,3.30
2018-01-07T14:43:43.193Z,3.97
2018-01-07T14:46:09.424Z,3.30
2018-01-07T14:48:35.856Z,3.73
2018-01-07T14:51:02.313Z,3.00
2018-01-07T14:53:29.401Z,3.70
2018-01-07T14:55:55.626Z,2.90
2018-01-07T14:58:22.806Z,3.30
2018-01-07T15:00:49.176Z,3.70
2018-01-07T15:03:15.371Z,4.00
2018-01-07T15:05:41.792Z,12.30
2018-01-07T15:08:07.982Z,2.63
2018-01-07T15:10:35.261Z,3.83
2018-01-07T15:13:01.465Z,5.90
2018-01-07T15:15:27.658Z,3.40
2018-01-07T15:17:53.885Z,3.73
2018-01-07T15:20:20.064Z,3.13
2018-01-07T15:22:46.409Z,5.07
2018-01-07T15:25:12.607Z,3.47
2018-01-07T15:27:38.846Z,5.40
2018-01-07T15:30:05.260Z,3.27
2018-01-07T15:32:32.246Z,4.60
2018-01-07T15:34:58.424Z,6.83
2018-01-07T15:37:24.847Z,3.70
2018-01-07T15:39:51.032Z,3.93
2018-01-07T15:42:17.244Z,4.60
2018-01-07T15:44:43.729Z,7.53
2018-01-07T15:47:10.006Z,4.53
2018-01-07T15:49:36.241Z,3.97
2018-01-07T15:52:02.732Z,4.40
2018-01-07T15:54:28.928Z,6.10
2018-01-07T15:56:55.121Z,3.73
2018-01-07T15:59:21.504Z,8.20
2018-01-07T16:01:47.698Z,8.00
2018-01-07T16:04:13.901Z,3.70
2018-01-07T16:06:40.149Z,6.37
2018-01-07T16:09:06.372Z,4.40
2018-01-07T16:11:32.850Z,4.33
2018-01-07T16:13:59.123Z,5.90
2018-01-07T16:16:25.448Z,6.27
2018-01-07T16:18:51.700Z,8.33
2018-01-07T16:21:17.968Z,18.47
2018-01-07T16:23:46.109Z,8.03
2018-01-07T16:26:12.326Z,8.03
2018-01-07T16:28:38.522Z,8.50
2018-01-07T16:31:05.774Z,11.57
2018-01-07T16:33:32.200Z,10.63
2018-01-07T16:35:58.547Z,12.70
2018-01-07T16:38:24.719Z,14.57
2018-01-07T16:40:51.010Z,21.30
2018-01-07T16:43:17.264Z,11.67
2018-01-07T16:45:44.433Z,11.33
2018-01-07T16:48:10.717Z,13.43
2018-01-07T16:50:37.149Z,8.07
2018-01-07T16:53:03.364Z,11.63
2018-01-07T16:55:29.548Z,12.37
2018-01-07T16:57:56.661Z,12.43
2018-01-07T17:00:24.005Z,8.87
2018-01-07T17:02:50.519Z,9.40
2018-01-07T17:05:17.519Z,22.17
2018-01-07T17:07:44.161Z,21.20
2018-01-07T17:10:10.355Z,11.63
2018-01-07T17:12:36.584Z,8.73
2018-01-07T17:15:03.568Z,11.00
2018-01-07T17:17:29.909Z,11.37
2018-01-07T17:19:56.909Z,10.53
2018-01-07T17:22:23.212Z,18.73
2018-01-07T17:24:50.231Z,10.40
2018-01-07T17:27:16.413Z,10.67
2018-01-07T17:29:44.402Z,13.10
2018-01-07T17:32:10.778Z,9.90
2018-01-07T17:34:37.741Z,29.83
2018-01-07T17:37:04.037Z,27.30
2018-01-07T17:39:30.385Z,21.63
2018-01-07T17:41:56.573Z,15.27
2018-01-07T17:44:23.133Z,35.40
2018-01-07T17:46:49.333Z,12.77
2018-01-07T17:49:16.624Z,17.93
2018-01-07T17:51:42.999Z,10.47
2018-01-07T17:54:09.181Z,12.73
2018-01-07T17:56:35.395Z,9.23
2018-01-07T17:59:02.308Z,9.97
2018-01-07T18:01:29.769Z,8.47
2018-01-07T18:03:56.041Z,10.67
2018-01-07T18:06:24.297Z,9.43
2018-01-07T18:08:50.508Z,9.20
2018-01-07T18:11:17.432Z,9.10
2018-01-07T18:13:43.602Z,11.50
2018-01-07T18:16:09.805Z,12.10
2018-01-07T18:18:36.103Z,10.50
2018-01-07T18:21:02.326Z,12.40
2018-01-07T18:23:30.259Z,11.13
2018-01-07T18:25:56.448Z,13.80
2018-01-07T18:28:23.376Z,12.20
2018-01-07T18:30:49.642Z,11.23
2018-01-07T18:33:15.904Z,13.13
2018-01-07T18:35:42.820Z,14.10
2018-01-07T18:38:09.317Z,12.97
2018-01-07T18:40:35.541Z,17.33
2018-01-07T18:43:02.495Z,10.50
2018-01-07T18:45:29.468Z,12.20
2018-01-07T18:47:55.730Z,20.53
2018-01-07T18:50:22.008Z,13.20
2018-01-07T18:52:48.201Z,14.20
2018-01-07T18:55:14.476Z,15.67
2018-01-07T18:57:40.716Z,11.40
2018-01-07T19:00:06.981Z,15.53
2018-01-07T19:02:33.364Z,12.97
2018-01-07T19:04:59.684Z,12.83
2018-01-07T19:07:26.696Z,10.90
2018-01-07T19:09:52.936Z,13.87
2018-01-07T19:12:19.249Z,12.80
2018-01-07T19:14:45.432Z,13.73
2018-01-07T19:17:11.764Z,12.37
2018-01-07T19:19:38.072Z,13.43
2018-01-07T19:22:04.245Z,12.90
2018-01-07T19:24:30.746Z,16.33
2018-01-07T19:26:57.861Z,13.43
2018-01-07T19:29:24.089Z,15.50
2018-01-07T19:34:22.416Z,19.63
2018-01-07T19:36:48.626Z,12.73
2018-01-07T19:39:14.921Z,13.87
2018-01-07T19:41:42.657Z,14.43
2018-01-07T19:44:08.856Z,15.87
2018-01-07T19:46:35.039Z,13.73
2018-01-07T19:49:02.116Z,18.80
2018-01-07T19:51:28.337Z,13.73
2018-01-07T19:53:54.584Z,17.80
2018-01-07T19:56:21.407Z,15.00
2018-01-07T19:58:48.538Z,13.33
2018-01-07T20:01:14.811Z,14.50
2018-01-07T20:03:41.772Z,15.03
2018-01-07T20:06:08.415Z,16.60
2018-01-07T20:08:35.016Z,15.13
2018-01-07T20:11:01.304Z,16.60
2018-01-07T20:13:28.261Z,14.17
2018-01-07T20:15:55.372Z,15.37
2018-01-07T20:18:21.573Z,16.80
2018-01-07T20:20:48.498Z,16.73
2018-01-07T20:23:14.664Z,16.40
2018-01-07T20:25:41.796Z,32.63
2018-01-07T20:28:08.240Z,21.03
2018-01-07T20:30:34.405Z,18.90
2018-01-07T20:33:00.693Z,17.73
2018-01-07T20:35:26.892Z,17.10
2018-01-07T20:37:53.077Z,16.00
2018-01-07T20:40:19.451Z,14.47
2018-01-07T20:42:45.663Z,18.53
2018-01-07T20:45:11.896Z,15.80
2018-01-07T20:47:38.353Z,17.83
2018-01-07T20:50:04.579Z,15.77
2018-01-07T20:52:30.844Z,17.57
2018-01-07T20:54:57.197Z,16.63
2018-01-07T20:57:23.489Z,15.10
2018-01-07T20:59:50.421Z,17.00
2018-01-07T21:02:16.720Z,15.90
2018-01-07T21:04:43.095Z,15.07
2018-01-07T21:07:09.302Z,13.57
2018-01-07T21:09:35.521Z,17.70
2018-01-07T21:12:02.194Z,15.70
2018-01-07T21:14:28.437Z,18.13
2018-01-07T21:16:54.630Z,19.07
2018-01-07T21:19:21.264Z,16.50
2018-01-07T21:21:47.825Z,16.07
2018-01-07T21:24:14.892Z,15.63
2018-01-07T21:26:41.956Z,14.97
2018-01-07T21:29:11.403Z,15.03
2018-01-07T21:31:37.693Z,15.97
2018-01-07T21:34:04.004Z,16.80
2018-01-07T21:36:30.403Z,17.70
2018-01-07T21:38:57.372Z,13.90
2018-01-07T21:41:24.504Z,15.77
2018-01-07T21:43:50.784Z,16.20
2018-01-07T21:46:17.044Z,14.40
2018-01-07T21:48:43.398Z,13.93
2018-01-07T21:51:11.930Z,14.00
2018-01-07T21:53:38.203Z,15.10
2018-01-07T21:56:04.766Z,13.53
2018-01-07T21:58:31.005Z,14.60
2018-01-07T22:01:09.436Z,14.33
2018-01-07T22:03:47.981Z,15.47
2018-01-07T22:06:26.572Z,17.93
2018-01-07T22:08:53.520Z,15.20
2018-01-07T22:11:20.624Z,16.70
2018-01-07T22:13:47.013Z,16.27
2018-01-07T22:16:13.265Z,16.27
2018-01-07T22:18:39.776Z,14.27
2018-01-07T22:21:06.156Z,18.90
2018-01-07T22:23:32.388Z,15.10
2018-01-07T22:25:58.945Z,21.37
2018-01-07T22:28:26.173Z,15.37
2018-01-07T22:30:52.456Z,14.90
2018-01-07T22:33:19.438Z,17.00
2018-01-07T22:35:45.901Z,13.50
2018-01-07T22:38:12.105Z,15.37
2018-01-07T22:40:38.424Z,16.07
2018-01-07T22:43:05.815Z,16.43
2018-01-07T22:45:32.212Z,16.53
2018-01-07T22:48:04.571Z,13.40
2018-01-07T22:50:30.863Z,13.50
2018-01-07T22:52:57.199Z,13.70
2018-01-07T22:55:23.437Z,12.43
2018-01-07T22:57:49.740Z,13.70
2018-01-07T23:00:16.105Z,12.47
2018-01-07T23:02:42.688Z,13.63
2018-01-07T23:05:08.966Z,14.27
2018-01-07T23:07:35.451Z,12.70
2018-01-07T23:10:01.742Z,11.03
2018-01-07T23:12:28.082Z,15.60
2018-01-07T23:14:55.053Z,17.23
2018-01-07T23:17:22.313Z,17.37
2018-01-07T23:19:49.387Z,14.40
2018-01-07T23:22:15.593Z,13.80
2018-01-07T23:24:43.921Z,13.97
2018-01-07T23:27:10.309Z,13.53
2018-01-07T23:29:36.565Z,12.70
2018-01-07T23:32:02.803Z,13.30
2018-01-07T23:34:29.234Z,15.07
2018-01-07T23:36:58.084Z,16.20
2018-01-07T23:39:24.331Z,13.97
2018-01-07T23:41:50.728Z,11.90
2018-01-07T23:44:17.023Z,12.90
2018-01-07T23:46:43.468Z,13.57
2018-01-07T23:49:09.704Z,21.27
2018-01-07T23:51:35.976Z,15.07
2018-01-07T23:54:02.332Z,16.33
2018-01-07T23:56:28.601Z,13.17
2018-01-07T23:58:54.834Z,14.27
